createdAt,value
2023-08-29T00:01:38.005Z,16.62
2023-08-29T00:04:04.958Z,16.57
2023-08-29T00:06:31.653Z,16.62
2023-08-29T00:08:58.293Z,16.58
2023-08-29T00:11:24.955Z,16.59
2023-08-29T00:13:53.686Z,16.51
2023-08-29T00:16:20.502Z,16.51
2023-08-29T00:18:47.179Z,16.38
2023-08-29T00:21:13.770Z,16.31
2023-08-29T00:23:40.391Z,16.30
2023-08-29T00:26:07.111Z,16.34
2023-08-29T00:28:33.712Z,16.24
2023-08-29T00:31:00.420Z,16.27
2023-08-29T00:33:27.066Z,16.32
2023-08-29T00:35:53.668Z,16.36
2023-08-29T00:38:20.410Z,16.41
2023-08-29T00:40:47.039Z,16.49
2023-08-29T00:43:14.914Z,16.52
2023-08-29T00:45:41.848Z,16.49
2023-08-29T00:48:09.832Z,16.51
2023-08-29T00:50:37.194Z,16.54
2023-08-29T00:53:07.038Z,16.52
2023-08-29T00:55:35.959Z,16.50
2023-08-29T00:58:03.793Z,16.48
2023-08-29T01:00:32.284Z,16.49
2023-08-29T01:03:01.105Z,16.23
2023-08-29T01:05:29.713Z,16.28
2023-08-29T01:08:01.057Z,16.22
2023-08-29T01:10:46.926Z,16.27
2023-08-29T01:13:40.656Z,16.33
2023-08-29T01:16:11.355Z,16.30
2023-08-29T01:18:39.232Z,16.11
2023-08-29T01:21:30.466Z,15.98
2023-08-29T01:24:16.776Z,15.97
2023-08-29T01:26:45.288Z,15.94
2023-08-29T01:29:12.301Z,15.97
2023-08-29T01:31:39.215Z,15.98
2023-08-29T01:34:06.361Z,15.92
2023-08-29T01:36:42.592Z,15.93
2023-08-29T01:39:09.278Z,15.98
2023-08-29T01:41:36.062Z,16.04
2023-08-29T01:44:03.903Z,16.02
2023-08-29T01:46:31.169Z,16.09
2023-08-29T01:49:00.081Z,16.05
2023-08-29T01:51:26.651Z,16.16
2023-08-29T01:53:53.781Z,16.13
2023-08-29T01:56:24.064Z,16.08
2023-08-29T01:58:53.432Z,16.01
2023-08-29T02:01:23.558Z,16.08
2023-08-29T02:03:51.024Z,16.06
2023-08-29T02:06:19.154Z,16.12
2023-08-29T02:08:45.971Z,16.17
2023-08-29T02:11:12.720Z,16.12
2023-08-29T02:13:39.404Z,16.20
2023-08-29T02:16:05.995Z,16.22
2023-08-29T02:18:32.652Z,16.17
2023-08-29T02:20:59.214Z,16.13
2023-08-29T02:23:27.562Z,16.18
2023-08-29T02:26:07.023Z,16.12
2023-08-29T02:28:37.930Z,16.19
2023-08-29T02:31:14.638Z,16.21
2023-08-29T02:33:41.512Z,16.23
2023-08-29T02:36:08.287Z,16.19
2023-08-29T02:38:35.680Z,16.10
2023-08-29T02:41:02.643Z,16.07
2023-08-29T02:43:29.509Z,16.00
2023-08-29T02:45:56.395Z,15.97
2023-08-29T02:48:23.293Z,15.93
2023-08-29T02:50:50.174Z,15.94
2023-08-29T02:53:21.892Z,15.94
2023-08-29T02:55:53.197Z,15.87
2023-08-29T02:58:20.607Z,15.86
2023-08-29T03:00:48.888Z,15.90
2023-08-29T03:03:17.059Z,15.84
2023-08-29T03:05:43.929Z,15.85
2023-08-29T03:08:11.639Z,15.85
2023-08-29T03:10:39.412Z,15.90
2023-08-29T03:13:06.576Z,15.96
2023-08-29T03:15:34.227Z,16.02
2023-08-29T03:18:02.322Z,15.96
2023-08-29T03:20:30.082Z,16.00
2023-08-29T03:22:56.678Z,15.99
2023-08-29T03:25:23.567Z,15.87
2023-08-29T03:27:50.813Z,15.85
2023-08-29T03:30:17.827Z,15.80
2023-08-29T03:32:44.803Z,15.77
2023-08-29T03:35:15.256Z,15.76
2023-08-29T03:37:42.861Z,15.74
2023-08-29T03:40:13.844Z,15.75
2023-08-29T03:42:40.932Z,15.83
2023-08-29T03:45:09.269Z,15.83
2023-08-29T03:47:38.677Z,15.81
2023-08-29T03:50:06.662Z,15.76
2023-08-29T03:52:33.679Z,15.63
2023-08-29T03:55:00.561Z,15.55
2023-08-29T03:57:27.876Z,15.49
2023-08-29T03:59:54.619Z,15.44
2023-08-29T04:02:21.285Z,15.51
2023-08-29T04:04:52.727Z,15.47
2023-08-29T04:07:20.409Z,15.41
2023-08-29T04:09:47.212Z,15.37
2023-08-29T04:12:13.841Z,15.42
2023-08-29T04:14:40.572Z,15.52
2023-08-29T04:17:07.280Z,15.50
2023-08-29T04:19:34.747Z,15.59
2023-08-29T04:22:02.001Z,15.66
2023-08-29T04:24:29.697Z,15.77
2023-08-29T04:26:56.415Z,15.80
2023-08-29T04:29:24.085Z,15.76
2023-08-29T04:31:50.732Z,15.69
2023-08-29T04:34:17.357Z,15.64
2023-08-29T04:36:44.017Z,15.73
2023-08-29T04:39:10.621Z,15.65
2023-08-29T04:41:37.288Z,15.69
2023-08-29T04:44:04.039Z,15.65
2023-08-29T04:46:30.629Z,15.75
2023-08-29T04:48:57.576Z,15.70
2023-08-29T04:51:24.253Z,15.72
2023-08-29T04:53:50.980Z,15.74
2023-08-29T04:56:17.661Z,15.74
2023-08-29T04:58:44.272Z,15.83
2023-08-29T05:01:11.537Z,15.77
2023-08-29T05:03:38.460Z,15.77
2023-08-29T05:06:05.759Z,15.79
2023-08-29T05:08:36.085Z,15.80
2023-08-29T05:11:04.488Z,15.85
2023-08-29T05:13:31.143Z,15.94
2023-08-29T05:15:58.601Z,15.87
2023-08-29T05:18:28.949Z,15.89
2023-08-29T05:20:58.233Z,15.95
2023-08-29T05:23:25.070Z,15.91
2023-08-29T05:25:51.678Z,15.93
2023-08-29T05:28:18.278Z,15.86
2023-08-29T05:30:45.359Z,15.87
2023-08-29T05:33:13.296Z,15.92
2023-08-29T05:35:40.012Z,15.94
2023-08-29T05:38:06.896Z,15.88
2023-08-29T05:40:34.615Z,15.76
2023-08-29T05:43:01.436Z,15.81
2023-08-29T05:45:28.035Z,15.85
2023-08-29T05:47:54.672Z,15.92
2023-08-29T05:50:21.265Z,16.01
2023-08-29T05:52:47.934Z,15.97
2023-08-29T05:55:14.584Z,15.95
2023-08-29T05:57:41.197Z,16.02
2023-08-29T06:00:13.742Z,15.86
2023-08-29T06:02:43.158Z,15.88
2023-08-29T06:05:10.581Z,15.89
2023-08-29T06:07:40.031Z,15.99
2023-08-29T06:10:10.229Z,15.99
2023-08-29T06:12:36.896Z,15.89
2023-08-29T06:15:03.709Z,15.96
2023-08-29T06:17:30.259Z,16.11
2023-08-29T06:19:57.256Z,16.13
2023-08-29T06:22:23.889Z,16.20
2023-08-29T06:24:50.820Z,16.27
2023-08-29T06:27:17.409Z,16.21
2023-08-29T06:29:44.058Z,16.29
2023-08-29T06:32:24.145Z,16.39
2023-08-29T06:34:54.671Z,16.32
2023-08-29T06:37:21.355Z,16.40
2023-08-29T06:39:47.992Z,16.41
2023-08-29T06:42:14.573Z,16.53
2023-08-29T06:44:41.251Z,16.54
2023-08-29T06:47:08.042Z,16.53
2023-08-29T06:49:47.814Z,16.58
2023-08-29T06:52:33.326Z,16.53
2023-08-29T06:54:59.825Z,16.61
2023-08-29T06:57:27.463Z,16.55
2023-08-29T06:59:54.083Z,16.65
2023-08-29T07:02:20.694Z,16.69
2023-08-29T07:04:47.743Z,16.77
2023-08-29T07:07:14.378Z,16.83
2023-08-29T07:09:41.121Z,16.90
2023-08-29T07:12:07.973Z,16.81
2023-08-29T07:14:34.628Z,16.97
2023-08-29T07:17:10.203Z,16.94
2023-08-29T07:19:37.646Z,17.05
2023-08-29T07:22:21.216Z,17.03
2023-08-29T07:24:49.876Z,17.10
2023-08-29T07:27:16.500Z,17.13
2023-08-29T07:29:43.205Z,17.18
2023-08-29T07:32:09.782Z,17.33
2023-08-29T07:34:36.455Z,17.31
2023-08-29T07:37:03.909Z,17.28
2023-08-29T07:39:30.480Z,17.23
2023-08-29T07:41:57.075Z,17.29
2023-08-29T07:44:23.721Z,17.41
2023-08-29T07:47:07.814Z,17.46
2023-08-29T07:49:37.159Z,17.61
2023-08-29T07:52:04.376Z,17.49
2023-08-29T07:54:31.228Z,17.54
2023-08-29T07:56:57.841Z,17.50
2023-08-29T07:59:25.632Z,17.32
2023-08-29T08:01:53.276Z,17.62
2023-08-29T08:04:20.169Z,17.80
2023-08-29T08:06:46.852Z,17.94
2023-08-29T08:09:14.111Z,18.07
2023-08-29T08:11:40.796Z,17.90
2023-08-29T08:14:07.376Z,18.04
2023-08-29T08:16:34.098Z,18.07
2023-08-29T08:19:00.716Z,18.15
2023-08-29T08:21:27.395Z,18.04
2023-08-29T08:23:53.972Z,17.98
2023-08-29T08:26:20.645Z,17.95
2023-08-29T08:28:47.426Z,17.97
2023-08-29T08:31:14.149Z,18.11
2023-08-29T08:33:42.287Z,18.25
2023-08-29T08:36:09.120Z,18.19
2023-08-29T08:38:35.795Z,18.22
2023-08-29T08:41:04.661Z,18.22
2023-08-29T08:43:32.763Z,18.26
2023-08-29T08:46:00.240Z,18.35
2023-08-29T08:48:27.858Z,18.40
2023-08-29T08:51:10.702Z,18.35
2023-08-29T08:53:42.374Z,18.29
2023-08-29T08:56:09.690Z,18.35
2023-08-29T08:58:38.373Z,18.32
2023-08-29T09:01:05.530Z,18.34
2023-08-29T09:03:32.399Z,18.46
2023-08-29T09:05:59.079Z,18.52
2023-08-29T09:08:25.977Z,18.50
2023-08-29T09:10:54.349Z,18.33
2023-08-29T09:13:21.698Z,18.38
2023-08-29T09:15:48.644Z,18.38
2023-08-29T09:18:24.693Z,18.46
2023-08-29T09:20:55.617Z,18.63
2023-08-29T09:23:24.094Z,18.80
2023-08-29T09:25:57.979Z,18.81
2023-08-29T09:28:28.976Z,18.82
2023-08-29T09:30:56.781Z,18.53
2023-08-29T09:33:23.613Z,18.16
2023-08-29T09:35:50.873Z,18.34
2023-08-29T09:38:20.446Z,18.60
2023-08-29T09:40:51.594Z,18.87
2023-08-29T09:43:18.756Z,18.81
2023-08-29T09:45:53.580Z,18.92
2023-08-29T09:48:20.778Z,18.99
2023-08-29T09:50:49.198Z,18.90
2023-08-29T09:53:17.585Z,18.89
2023-08-29T09:55:49.606Z,19.22
2023-08-29T09:58:25.154Z,18.93
2023-08-29T10:00:53.019Z,19.02
2023-08-29T10:03:20.914Z,19.12
2023-08-29T10:05:49.978Z,18.92
2023-08-29T10:08:29.433Z,19.15
2023-08-29T10:11:00.713Z,19.33
2023-08-29T10:13:29.170Z,19.49
2023-08-29T10:15:58.283Z,19.51
2023-08-29T10:18:26.919Z,19.47
2023-08-29T10:20:54.960Z,19.62
2023-08-29T10:23:26.803Z,19.66
2023-08-29T10:25:56.871Z,19.84
2023-08-29T10:28:24.050Z,19.75
2023-08-29T10:30:53.571Z,19.74
2023-08-29T10:33:21.499Z,19.42
2023-08-29T10:35:49.920Z,19.63
2023-08-29T10:38:21.324Z,19.58
2023-08-29T10:41:13.378Z,19.59
2023-08-29T10:43:41.544Z,19.63
2023-08-29T10:46:10.820Z,19.68
2023-08-29T10:48:44.832Z,19.77
2023-08-29T10:51:16.131Z,19.74
2023-08-29T10:54:06.566Z,19.58
2023-08-29T10:56:44.526Z,19.76
2023-08-29T10:59:30.852Z,19.73
2023-08-29T11:02:30.520Z,19.97
2023-08-29T11:05:06.488Z,19.70
2023-08-29T11:07:55.441Z,19.76
2023-08-29T11:10:54.541Z,19.86
2023-08-29T11:13:27.575Z,19.98
2023-08-29T11:15:54.286Z,19.96
2023-08-29T11:18:32.034Z,20.01
2023-08-29T11:20:59.046Z,20.18
2023-08-29T11:23:26.186Z,20.27
2023-08-29T11:25:52.888Z,20.11
2023-08-29T11:28:20.218Z,20.13
2023-08-29T11:30:47.909Z,19.99
2023-08-29T11:33:15.696Z,20.24
2023-08-29T11:35:43.683Z,20.21
2023-08-29T11:38:10.767Z,20.18
2023-08-29T11:41:00.959Z,19.99
2023-08-29T11:43:58.868Z,20.05
2023-08-29T11:46:15.929Z,20.20
2023-08-29T11:48:43.070Z,20.26
2023-08-29T11:51:09.883Z,19.72
2023-08-29T11:53:39.128Z,20.08
2023-08-29T11:56:10.926Z,20.19
2023-08-29T11:58:38.978Z,20.16
2023-08-29T12:01:06.446Z,20.33
2023-08-29T12:03:37.031Z,20.19
2023-08-29T12:06:05.941Z,20.02
2023-08-29T12:08:35.740Z,20.12
2023-08-29T12:11:03.603Z,20.01
2023-08-29T12:13:30.389Z,20.17
2023-08-29T12:15:59.300Z,20.25
2023-08-29T12:18:27.434Z,20.39
2023-08-29T12:21:16.635Z,20.46
2023-08-29T12:23:45.507Z,20.36
2023-08-29T12:26:13.195Z,20.21
2023-08-29T12:28:40.429Z,20.53
2023-08-29T12:31:08.698Z,20.48
2023-08-29T12:33:36.710Z,20.60
2023-08-29T12:36:04.432Z,20.63
2023-08-29T12:38:32.567Z,20.53
2023-08-29T12:40:59.560Z,20.59
2023-08-29T12:43:26.426Z,20.38
2023-08-29T12:45:59.982Z,20.43
2023-08-29T12:48:27.975Z,20.34
2023-08-29T12:50:54.770Z,20.39
2023-08-29T12:53:21.560Z,20.40
2023-08-29T12:55:48.534Z,20.20
2023-08-29T12:58:15.242Z,20.30
2023-08-29T13:00:42.977Z,20.42
2023-08-29T13:03:10.480Z,20.45
2023-08-29T13:05:37.619Z,20.68
2023-08-29T13:08:05.580Z,20.65
2023-08-29T13:10:32.513Z,20.56
2023-08-29T13:12:59.182Z,20.22
2023-08-29T13:15:37.025Z,20.03
2023-08-29T13:18:08.083Z,20.13
2023-08-29T13:20:35.356Z,20.21
2023-08-29T13:23:02.123Z,20.31
2023-08-29T13:25:30.044Z,20.32
2023-08-29T13:27:56.938Z,20.28
2023-08-29T13:30:23.862Z,20.23
2023-08-29T13:32:53.233Z,20.34
2023-08-29T13:35:20.452Z,20.00
2023-08-29T13:37:47.441Z,20.02
2023-08-29T13:40:17.972Z,20.14
2023-08-29T13:42:44.743Z,20.20
2023-08-29T13:45:12.389Z,20.11
2023-08-29T13:47:39.679Z,20.21
2023-08-29T13:50:07.099Z,20.17
2023-08-29T13:52:33.858Z,20.45
2023-08-29T13:55:00.818Z,20.51
2023-08-29T13:57:29.733Z,20.55
2023-08-29T13:59:56.284Z,20.62
2023-08-29T14:02:22.977Z,20.73
2023-08-29T14:04:49.775Z,20.75
2023-08-29T14:07:17.770Z,20.54
2023-08-29T14:09:44.577Z,20.79
2023-08-29T14:12:14.231Z,20.83
2023-08-29T14:14:41.201Z,20.78
2023-08-29T14:17:07.915Z,20.74
2023-08-29T14:19:36.603Z,20.61
2023-08-29T14:22:05.095Z,20.64
2023-08-29T14:24:32.299Z,20.73
2023-08-29T14:26:59.105Z,20.76
2023-08-29T14:29:29.928Z,20.67
2023-08-29T14:31:56.805Z,20.52
2023-08-29T14:34:23.434Z,20.56
2023-08-29T14:36:50.108Z,20.36
2023-08-29T14:39:17.702Z,20.15
2023-08-29T14:41:45.033Z,19.95
2023-08-29T14:44:11.976Z,19.90
2023-08-29T14:46:38.797Z,20.06
2023-08-29T14:49:05.564Z,19.97
2023-08-29T14:51:32.316Z,20.00
2023-08-29T14:54:03.573Z,19.93
2023-08-29T14:56:32.005Z,19.65
2023-08-29T14:59:00.696Z,19.68
2023-08-29T15:01:27.979Z,19.70
2023-08-29T15:03:55.132Z,19.48
2023-08-29T15:06:21.947Z,19.44
2023-08-29T15:08:48.644Z,19.46
2023-08-29T15:11:17.595Z,19.37
2023-08-29T15:13:44.265Z,19.44
2023-08-29T15:16:11.113Z,19.21
2023-08-29T15:18:37.866Z,19.16
2023-08-29T15:21:06.853Z,19.29
2023-08-29T15:23:35.183Z,19.36
2023-08-29T15:26:05.477Z,19.35
2023-08-29T15:28:32.194Z,19.27
2023-08-29T15:31:02.055Z,19.23
2023-08-29T15:33:30.083Z,19.16
2023-08-29T15:35:58.135Z,19.16
2023-08-29T15:38:25.538Z,19.23
2023-08-29T15:40:55.935Z,19.11
2023-08-29T15:43:25.758Z,19.14
2023-08-29T15:45:53.086Z,19.21
2023-08-29T15:48:20.089Z,19.29
2023-08-29T15:50:47.599Z,19.37
2023-08-29T15:53:15.251Z,19.33
2023-08-29T15:55:43.026Z,19.42
2023-08-29T15:58:10.064Z,19.36
2023-08-29T16:00:38.255Z,19.40
2023-08-29T16:03:10.658Z,19.30
2023-08-29T16:05:37.650Z,19.44
2023-08-29T16:08:04.982Z,19.44
2023-08-29T16:10:31.929Z,19.53
2023-08-29T16:12:58.575Z,19.41
2023-08-29T16:15:25.234Z,19.20
2023-08-29T16:17:51.941Z,19.12
2023-08-29T16:20:18.708Z,19.31
2023-08-29T16:22:46.325Z,19.38
2023-08-29T16:25:13.149Z,19.29
2023-08-29T16:27:39.988Z,19.36
2023-08-29T16:30:08.515Z,19.45
2023-08-29T16:32:36.448Z,19.32
2023-08-29T16:35:03.429Z,19.26
2023-08-29T16:37:30.480Z,19.32
2023-08-29T16:39:58.887Z,19.50
2023-08-29T16:42:25.698Z,19.55
2023-08-29T16:44:52.675Z,19.56
2023-08-29T16:47:19.470Z,19.53
2023-08-29T16:49:46.118Z,19.52
2023-08-29T16:52:12.883Z,19.49
2023-08-29T16:54:39.505Z,19.53
2023-08-29T16:57:06.520Z,19.51
2023-08-29T16:59:57.547Z,19.49
2023-08-29T17:02:25.546Z,19.41
2023-08-29T17:04:53.635Z,19.47
2023-08-29T17:07:20.581Z,19.53
2023-08-29T17:09:47.208Z,19.57
2023-08-29T17:12:21.647Z,19.49
2023-08-29T17:14:50.185Z,19.33
2023-08-29T17:17:17.827Z,19.29
2023-08-29T17:19:45.163Z,19.32
2023-08-29T17:22:11.965Z,19.41
2023-08-29T17:24:39.883Z,19.46
2023-08-29T17:27:10.523Z,19.43
2023-08-29T17:29:38.162Z,19.35
2023-08-29T17:32:05.453Z,19.35
2023-08-29T17:34:32.311Z,19.33
2023-08-29T17:37:01.903Z,19.40
2023-08-29T17:39:29.352Z,19.28
2023-08-29T17:41:56.473Z,19.19
2023-08-29T17:44:23.513Z,19.24
2023-08-29T17:46:50.451Z,19.19
2023-08-29T17:49:19.324Z,19.17
2023-08-29T17:51:46.311Z,19.12
2023-08-29T17:54:15.788Z,19.19
2023-08-29T17:56:42.287Z,19.11
2023-08-29T17:59:08.948Z,19.02
2023-08-29T18:01:35.657Z,18.91
2023-08-29T18:04:02.271Z,18.90
2023-08-29T18:06:28.838Z,18.95
2023-08-29T18:08:56.399Z,18.89
2023-08-29T18:11:23.093Z,18.85
2023-08-29T18:13:49.895Z,18.80
2023-08-29T18:16:17.022Z,18.75
2023-08-29T18:18:43.785Z,18.70
2023-08-29T18:21:11.918Z,18.74
2023-08-29T18:23:38.804Z,18.77
2023-08-29T18:26:06.977Z,18.75
2023-08-29T18:28:34.679Z,18.75
2023-08-29T18:31:04.074Z,18.67
2023-08-29T18:33:36.729Z,18.59
2023-08-29T18:36:04.022Z,18.62
2023-08-29T18:38:31.352Z,18.58
2023-08-29T18:40:58.885Z,18.48
2023-08-29T18:43:25.687Z,18.40
2023-08-29T18:45:52.384Z,18.34
2023-08-29T18:48:20.376Z,18.33
2023-08-29T18:50:47.272Z,18.28
2023-08-29T18:53:14.109Z,18.25
2023-08-29T18:55:45.068Z,18.20
2023-08-29T18:58:12.616Z,18.13
2023-08-29T19:00:39.407Z,18.11
2023-08-29T19:03:07.321Z,18.03
2023-08-29T19:05:36.464Z,18.03
2023-08-29T19:08:03.522Z,17.99
2023-08-29T19:10:30.806Z,17.91
2023-08-29T19:12:58.030Z,17.88
2023-08-29T19:15:24.995Z,17.89
2023-08-29T19:17:52.091Z,17.84
2023-08-29T19:20:18.865Z,17.86
2023-08-29T19:22:45.621Z,17.89
2023-08-29T19:25:12.962Z,17.91
2023-08-29T19:27:39.574Z,17.86
2023-08-29T19:30:09.100Z,17.82
2023-08-29T19:32:36.309Z,17.76
2023-08-29T19:35:05.230Z,17.68
2023-08-29T19:37:35.371Z,17.60
2023-08-29T19:40:02.116Z,17.56
2023-08-29T19:42:28.641Z,17.60
2023-08-29T19:44:55.295Z,17.60
2023-08-29T19:47:25.785Z,17.52
2023-08-29T19:49:52.436Z,17.41
2023-08-29T19:52:19.156Z,17.39
2023-08-29T19:54:45.909Z,17.39
2023-08-29T19:57:12.680Z,17.30
2023-08-29T19:59:39.363Z,17.26
2023-08-29T20:02:06.139Z,17.24
2023-08-29T20:04:32.865Z,17.28
2023-08-29T20:06:59.459Z,17.34
2023-08-29T20:09:26.448Z,17.22
2023-08-29T20:11:54.841Z,17.14
2023-08-29T20:14:21.496Z,17.15
2023-08-29T20:16:48.191Z,17.22
2023-08-29T20:19:15.365Z,17.13
2023-08-29T20:21:42.197Z,17.12
2023-08-29T20:24:08.850Z,17.15
2023-08-29T20:26:35.448Z,17.09
2023-08-29T20:29:02.894Z,17.08
2023-08-29T20:31:39.089Z,17.07
2023-08-29T20:34:06.456Z,17.08
2023-08-29T20:36:33.099Z,17.11
2023-08-29T20:38:59.797Z,17.06
2023-08-29T20:41:26.560Z,17.03
2023-08-29T20:43:53.173Z,17.04
2023-08-29T20:46:20.384Z,16.94
2023-08-29T20:48:51.882Z,16.96
2023-08-29T20:51:20.634Z,16.97
2023-08-29T20:53:47.268Z,16.99
2023-08-29T20:56:13.909Z,16.96
2023-08-29T20:58:40.717Z,16.96
2023-08-29T21:01:07.468Z,16.93
2023-08-29T21:03:34.372Z,16.89
2023-08-29T21:06:01.157Z,16.90
2023-08-29T21:08:28.347Z,16.88
2023-08-29T21:10:55.415Z,16.88
2023-08-29T21:13:23.376Z,16.93
2023-08-29T21:15:50.218Z,16.89
2023-08-29T21:18:18.486Z,16.85
2023-08-29T21:20:55.693Z,16.80
2023-08-29T21:23:23.171Z,16.80
2023-08-29T21:25:50.979Z,16.70
2023-08-29T21:28:20.306Z,16.61
2023-08-29T21:30:47.586Z,16.55
2023-08-29T21:33:14.313Z,16.55
2023-08-29T21:35:42.278Z,16.42
2023-08-29T21:38:10.224Z,16.37
2023-08-29T21:40:38.252Z,16.32
2023-08-29T21:43:10.567Z,16.27
2023-08-29T21:45:38.650Z,16.37
2023-08-29T21:48:07.407Z,16.39
2023-08-29T21:50:45.565Z,16.44
2023-08-29T21:53:13.175Z,16.45
2023-08-29T21:55:41.276Z,16.49
2023-08-29T21:58:11.750Z,16.47
2023-08-29T22:00:38.892Z,16.49
2023-08-29T22:03:07.061Z,16.46
2023-08-29T22:05:34.111Z,16.36
2023-08-29T22:08:01.649Z,16.27
2023-08-29T22:10:28.295Z,16.18
2023-08-29T22:12:55.024Z,16.06
2023-08-29T22:15:21.714Z,15.94
2023-08-29T22:17:48.439Z,15.93
2023-08-29T22:20:15.770Z,15.87
2023-08-29T22:22:42.882Z,15.89
2023-08-29T22:25:13.398Z,15.91
2023-08-29T22:27:40.020Z,15.90
2023-08-29T22:30:18.937Z,15.92
2023-08-29T22:32:45.728Z,15.92
2023-08-29T22:35:12.530Z,15.90
2023-08-29T22:37:39.176Z,15.65
2023-08-29T22:40:06.734Z,15.62
2023-08-29T22:42:33.415Z,15.68
2023-08-29T22:45:00.046Z,15.73
2023-08-29T22:47:27.014Z,15.69
2023-08-29T22:49:53.805Z,15.61
2023-08-29T22:52:20.412Z,15.61
2023-08-29T22:54:47.095Z,15.63
2023-08-29T22:57:13.830Z,15.61
2023-08-29T22:59:40.520Z,15.68
2023-08-29T23:02:07.133Z,15.62
2023-08-29T23:04:34.890Z,15.59
2023-08-29T23:07:08.683Z,15.66
2023-08-29T23:09:37.123Z,15.55
2023-08-29T23:12:05.172Z,15.39
2023-08-29T23:14:32.102Z,15.37
2023-08-29T23:16:58.695Z,15.45
2023-08-29T23:19:26.102Z,15.46
2023-08-29T23:21:53.882Z,15.41
2023-08-29T23:24:21.362Z,15.38
2023-08-29T23:26:49.117Z,15.36
2023-08-29T23:29:16.147Z,15.40
2023-08-29T23:31:42.940Z,15.44
2023-08-29T23:34:09.553Z,15.40
2023-08-29T23:36:36.170Z,15.44
2023-08-29T23:39:03.915Z,15.50
2023-08-29T23:41:30.574Z,15.49
2023-08-29T23:43:57.224Z,15.47
2023-08-29T23:46:24.011Z,15.45
2023-08-29T23:48:50.643Z,15.53
2023-08-29T23:51:17.560Z,15.58
2023-08-29T23:53:44.253Z,15.45
2023-08-29T23:56:10.893Z,15.50
2023-08-29T23:58:37.514Z,15.53
